sensor_id;sensor_type;location;lat;lon;timestamp;pressure;altitude;pressure_sealevel;temperature;humidity
79077;BME280;68477;42.698;23.342;2024-01-06T00:02:16;95238.41;;;5.20;99.26
79077;BME280;68477;42.698;23.342;2024-01-06T00:04:41;95243.75;;;5.28;99.26
79077;BME280;68477;42.698;23.342;2024-01-06T00:07:07;95238.97;;;4.85;100.00
79077;BME280;68477;42.698;23.342;2024-01-06T00:09:33;95233.63;;;4.86;100.00
79077;BME280;68477;42.698;23.342;2024-01-06T00:11:58;95229.38;;;5.05;99.86
79077;BME280;68477;42.698;23.342;2024-01-06T00:14:24;95216.22;;;4.87;100.00
79077;BME280;68477;42.698;23.342;2024-01-06T00:16:49;95228.97;;;4.90;98.77
79077;BME280;68477;42.698;23.342;2024-01-06T00:19:15;95243.38;;;4.75;100.00
79077;BME280;68477;42.698;23.342;2024-01-06T00:21:42;95246.94;;;5.03;98.17
79077;BME280;68477;42.698;23.342;2024-01-06T00:24:08;95253.94;;;5.02;98.41
79077;BME280;68477;42.698;23.342;2024-01-06T00:26:33;95254.47;;;4.96;99.03
79077;BME280;68477;42.698;23.342;2024-01-06T00:28:59;95245.28;;;5.11;98.55
79077;BME280;68477;42.698;23.342;2024-01-06T00:31:24;95233.31;;;5.18;97.93
79077;BME280;68477;42.698;23.342;2024-01-06T00:33:50;95237.75;;;4.99;98.65
79077;BME280;68477;42.698;23.342;2024-01-06T00:36:15;95255.00;;;5.09;97.42
79077;BME280;68477;42.698;23.342;2024-01-06T00:38:41;95258.75;;;4.87;98.68
79077;BME280;68477;42.698;23.342;2024-01-06T00:41:08;95254.59;;;4.75;100.00
79077;BME280;68477;42.698;23.342;2024-01-06T00:43:33;95246.53;;;4.78;100.00
79077;BME280;68477;42.698;23.342;2024-01-06T00:45:59;95258.56;;;5.08;98.59
79077;BME280;68477;42.698;23.342;2024-01-06T00:48:24;95248.56;;;5.13;97.73
79077;BME280;68477;42.698;23.342;2024-01-06T00:50:50;95229.63;;;4.34;100.00
79077;BME280;68477;42.698;23.342;2024-01-06T00:53:15;95215.38;;;4.38;100.00
79077;BME280;68477;42.698;23.342;2024-01-06T00:55:40;95225.81;;;4.57;100.00
79077;BME280;68477;42.698;23.342;2024-01-06T00:58:06;95243.22;;;4.57;99.06
79077;BME280;68477;42.698;23.342;2024-01-06T01:00:31;95240.91;;;4.54;99.55
79077;BME280;68477;42.698;23.342;2024-01-06T01:02:57;95239.94;;;4.45;99.46
79077;BME280;68477;42.698;23.342;2024-01-06T01:05:22;95236.66;;;4.43;100.00
79077;BME280;68477;42.698;23.342;2024-01-06T01:07:48;95242.09;;;4.40;100.00
79077;BME280;68477;42.698;23.342;2024-01-06T01:10:13;95235.38;;;3.78;100.00
79077;BME280;68477;42.698;23.342;2024-01-06T01:12:39;95235.03;;;4.02;100.00
79077;BME280;68477;42.698;23.342;2024-01-06T01:15:07;95232.63;;;3.79;100.00
79077;BME280;68477;42.698;23.342;2024-01-06T01:17:34;95228.22;;;4.11;100.00
79077;BME280;68477;42.698;23.342;2024-01-06T01:19:59;95228.69;;;4.45;99.44
79077;BME280;68477;42.698;23.342;2024-01-06T01:22:25;95235.13;;;4.60;99.13
79077;BME280;68477;42.698;23.342;2024-01-06T01:24:50;95221.84;;;4.53;98.79
79077;BME280;68477;42.698;23.342;2024-01-06T01:27:16;95230.47;;;4.44;99.24
79077;BME280;68477;42.698;23.342;2024-01-06T01:29:42;95223.56;;;4.14;100.00
79077;BME280;68477;42.698;23.342;2024-01-06T01:32:07;95226.84;;;4.16;100.00
79077;BME280;68477;42.698;23.342;2024-01-06T01:34:33;95223.69;;;4.03;100.00
79077;BME280;68477;42.698;23.342;2024-01-06T01:36:59;95222.44;;;3.97;100.00
79077;BME280;68477;42.698;23.342;2024-01-06T01:39:25;95210.88;;;4.50;99.19
79077;BME280;68477;42.698;23.342;2024-01-06T01:41:50;95208.25;;;4.30;99.47
79077;BME280;68477;42.698;23.342;2024-01-06T01:44:16;95201.44;;;3.79;100.00
79077;BME280;68477;42.698;23.342;2024-01-06T01:46:41;95195.22;;;4.21;100.00
79077;BME280;68477;42.698;23.342;2024-01-06T01:49:08;95198.41;;;3.74;100.00
79077;BME280;68477;42.698;23.342;2024-01-06T01:51:35;95195.06;;;4.13;100.00
79077;BME280;68477;42.698;23.342;2024-01-06T01:54:01;95190.84;;;4.41;99.67
79077;BME280;68477;42.698;23.342;2024-01-06T01:56:30;95189.72;;;4.04;100.00
79077;BME280;68477;42.698;23.342;2024-01-06T01:59:05;95193.31;;;3.73;100.00
79077;BME280;68477;42.698;23.342;2024-01-06T02:01:32;95191.53;;;4.23;100.00
79077;BME280;68477;42.698;23.342;2024-01-06T02:03:58;95185.94;;;4.47;99.72
79077;BME280;68477;42.698;23.342;2024-01-06T02:06:24;95183.97;;;4.30;100.00
79077;BME280;68477;42.698;23.342;2024-01-06T02:08:49;95187.03;;;4.45;100.00
79077;BME280;68477;42.698;23.342;2024-01-06T02:11:15;95187.84;;;4.35;100.00
79077;BME280;68477;42.698;23.342;2024-01-06T02:13:40;95173.03;;;4.36;100.00
79077;BME280;68477;42.698;23.342;2024-01-06T02:16:06;95168.50;;;4.09;100.00
79077;BME280;68477;42.698;23.342;2024-01-06T02:18:32;95157.06;;;3.81;100.00
79077;BME280;68477;42.698;23.342;2024-01-06T02:20:59;95151.78;;;4.12;100.00
79077;BME280;68477;42.698;23.342;2024-01-06T02:23:27;95150.69;;;4.04;100.00
79077;BME280;68477;42.698;23.342;2024-01-06T02:25:52;95150.44;;;4.56;100.00
79077;BME280;68477;42.698;23.342;2024-01-06T02:28:18;95145.75;;;4.69;100.00
79077;BME280;68477;42.698;23.342;2024-01-06T02:30:44;95146.03;;;4.08;100.00
79077;BME280;68477;42.698;23.342;2024-01-06T02:33:09;95137.69;;;4.33;100.00
79077;BME280;68477;42.698;23.342;2024-01-06T02:35:35;95134.66;;;4.48;100.00
79077;BME280;68477;42.698;23.342;2024-01-06T02:38:01;95136.44;;;4.37;100.00
79077;BME280;68477;42.698;23.342;2024-01-06T02:40:28;95149.72;;;4.73;99.87
79077;BME280;68477;42.698;23.342;2024-01-06T02:42:54;95136.44;;;4.57;99.91
79077;BME280;68477;42.698;23.342;2024-01-06T02:45:20;95128.94;;;4.34;100.00
79077;BME280;68477;42.698;23.342;2024-01-06T02:47:45;95135.56;;;4.85;99.35
79077;BME280;68477;42.698;23.342;2024-01-06T02:50:11;95131.78;;;4.70;99.99
79077;BME280;68477;42.698;23.342;2024-01-06T02:52:37;95137.50;;;4.93;97.02
79077;BME280;68477;42.698;23.342;2024-01-06T02:55:03;95133.09;;;4.93;97.20
79077;BME280;68477;42.698;23.342;2024-01-06T02:57:30;95131.78;;;4.41;100.00
79077;BME280;68477;42.698;23.342;2024-01-06T02:59:55;95118.50;;;4.25;100.00
79077;BME280;68477;42.698;23.342;2024-01-06T03:02:21;95110.84;;;4.14;100.00
79077;BME280;68477;42.698;23.342;2024-01-06T03:04:47;95104.94;;;4.41;100.00
79077;BME280;68477;42.698;23.342;2024-01-06T03:07:12;95109.16;;;4.51;100.00
79077;BME280;68477;42.698;23.342;2024-01-06T03:09:38;95106.41;;;4.72;99.29
79077;BME280;68477;42.698;23.342;2024-01-06T03:12:07;95103.13;;;4.51;100.00
79077;BME280;68477;42.698;23.342;2024-01-06T03:14:36;95104.97;;;4.21;100.00
79077;BME280;68477;42.698;23.342;2024-01-06T03:17:02;95108.47;;;4.68;94.48
79077;BME280;68477;42.698;23.342;2024-01-06T03:19:28;95104.78;;;4.61;97.18
79077;BME280;68477;42.698;23.342;2024-01-06T03:24:38;95096.16;;;4.03;100.00
79077;BME280;68477;42.698;23.342;2024-01-06T03:27:05;95096.47;;;4.19;100.00
79077;BME280;68477;42.698;23.342;2024-01-06T03:29:30;95096.59;;;4.37;99.46
79077;BME280;68477;42.698;23.342;2024-01-06T03:31:56;95091.41;;;4.08;100.00
79077;BME280;68477;42.698;23.342;2024-01-06T03:34:21;95104.13;;;4.21;100.00
79077;BME280;68477;42.698;23.342;2024-01-06T03:36:47;95098.16;;;3.61;100.00
79077;BME280;68477;42.698;23.342;2024-01-06T03:39:12;95095.84;;;3.58;100.00
79077;BME280;68477;42.698;23.342;2024-01-06T03:41:39;95090.44;;;4.09;100.00
79077;BME280;68477;42.698;23.342;2024-01-06T03:44:04;95100.97;;;3.98;100.00
79077;BME280;68477;42.698;23.342;2024-01-06T03:46:30;95091.38;;;4.18;100.00
79077;BME280;68477;42.698;23.342;2024-01-06T03:48:55;95093.59;;;4.22;99.77
79077;BME280;68477;42.698;23.342;2024-01-06T03:51:21;95099.97;;;3.79;100.00
79077;BME280;68477;42.698;23.342;2024-01-06T03:53:47;95106.59;;;4.13;100.00
79077;BME280;68477;42.698;23.342;2024-01-06T03:56:13;95101.09;;;3.96;100.00
79077;BME280;68477;42.698;23.342;2024-01-06T03:58:38;95096.31;;;4.11;99.99
79077;BME280;68477;42.698;23.342;2024-01-06T04:01:04;95090.25;;;3.82;100.00
79077;BME280;68477;42.698;23.342;2024-01-06T04:03:29;95087.00;;;4.08;100.00
79077;BME280;68477;42.698;23.342;2024-01-06T04:05:55;95102.97;;;3.65;100.00
79077;BME280;68477;42.698;23.342;2024-01-06T04:08:20;95091.59;;;3.57;100.00
79077;BME280;68477;42.698;23.342;2024-01-06T04:10:46;95099.88;;;4.00;100.00
79077;BME280;68477;42.698;23.342;2024-01-06T04:13:11;95095.72;;;3.69;100.00
79077;BME280;68477;42.698;23.342;2024-01-06T04:15:37;95095.16;;;3.56;100.00
79077;BME280;68477;42.698;23.342;2024-01-06T04:18:04;95095.88;;;3.77;100.00
79077;BME280;68477;42.698;23.342;2024-01-06T04:20:30;95098.63;;;3.75;100.00
79077;BME280;68477;42.698;23.342;2024-01-06T04:22:56;95081.13;;;3.97;100.00
79077;BME280;68477;42.698;23.342;2024-01-06T04:25:21;95080.97;;;4.37;98.59
79077;BME280;68477;42.698;23.342;2024-01-06T04:27:47;95091.41;;;4.08;99.11
79077;BME280;68477;42.698;23.342;2024-01-06T04:30:14;95086.44;;;4.15;98.46
79077;BME280;68477;42.698;23.342;2024-01-06T04:32:40;95097.78;;;3.65;100.00
79077;BME280;68477;42.698;23.342;2024-01-06T04:35:06;95104.88;;;3.73;100.00
79077;BME280;68477;42.698;23.342;2024-01-06T04:37:31;95113.16;;;4.17;99.34
79077;BME280;68477;42.698;23.342;2024-01-06T04:39:57;95120.13;;;4.06;99.24
79077;BME280;68477;42.698;23.342;2024-01-06T04:42:23;95123.00;;;4.03;98.99
79077;BME280;68477;42.698;23.342;2024-01-06T04:44:49;95115.03;;;3.76;99.95
79077;BME280;68477;42.698;23.342;2024-01-06T04:47:15;95104.72;;;3.55;100.00
79077;BME280;68477;42.698;23.342;2024-01-06T04:49:41;95112.59;;;4.03;99.86
79077;BME280;68477;42.698;23.342;2024-01-06T04:52:06;95125.34;;;4.06;98.22
79077;BME280;68477;42.698;23.342;2024-01-06T04:54:32;95113.97;;;3.98;97.63
79077;BME280;68477;42.698;23.342;2024-01-06T04:57:00;95104.50;;;3.77;98.02
79077;BME280;68477;42.698;23.342;2024-01-06T04:59:26;95123.13;;;3.92;97.85
79077;BME280;68477;42.698;23.342;2024-01-06T05:01:52;95109.03;;;3.85;96.24
79077;BME280;68477;42.698;23.342;2024-01-06T05:04:18;95111.63;;;3.95;95.60
79077;BME280;68477;42.698;23.342;2024-01-06T05:06:44;95123.41;;;3.89;95.38
79077;BME280;68477;42.698;23.342;2024-01-06T05:09:10;95106.47;;;3.45;98.54
79077;BME280;68477;42.698;23.342;2024-01-06T05:11:35;95078.06;;;3.72;97.97
79077;BME280;68477;42.698;23.342;2024-01-06T05:14:01;95085.00;;;3.43;99.79
79077;BME280;68477;42.698;23.342;2024-01-06T05:16:26;95085.97;;;3.11;100.00
79077;BME280;68477;42.698;23.342;2024-01-06T05:18:53;95107.59;;;3.52;99.74
79077;BME280;68477;42.698;23.342;2024-01-06T05:21:18;95087.88;;;3.49;99.40
79077;BME280;68477;42.698;23.342;2024-01-06T05:23:44;95097.97;;;3.33;99.10
79077;BME280;68477;42.698;23.342;2024-01-06T05:26:10;95084.38;;;2.89;100.00
79077;BME280;68477;42.698;23.342;2024-01-06T05:28:36;95078.81;;;3.34;100.00
79077;BME280;68477;42.698;23.342;2024-01-06T05:31:02;95086.59;;;3.34;99.36
79077;BME280;68477;42.698;23.342;2024-01-06T05:33:28;95064.03;;;3.35;100.00
79077;BME280;68477;42.698;23.342;2024-01-06T05:35:53;95076.69;;;3.68;98.24
79077;BME280;68477;42.698;23.342;2024-01-06T05:38:19;95057.94;;;3.84;97.42
79077;BME280;68477;42.698;23.342;2024-01-06T05:40:44;95082.78;;;3.38;100.00
79077;BME280;68477;42.698;23.342;2024-01-06T05:43:09;95067.78;;;3.71;97.88
79077;BME280;68477;42.698;23.342;2024-01-06T05:45:35;95071.94;;;4.12;94.31
79077;BME280;68477;42.698;23.342;2024-01-06T05:48:02;95078.50;;;4.16;95.09
79077;BME280;68477;42.698;23.342;2024-01-06T05:50:28;95074.13;;;4.07;94.46
79077;BME280;68477;42.698;23.342;2024-01-06T05:52:53;95070.00;;;4.14;92.68
79077;BME280;68477;42.698;23.342;2024-01-06T05:55:19;95069.03;;;3.96;93.85
79077;BME280;68477;42.698;23.342;2024-01-06T05:57:45;95067.69;;;4.01;92.25
79077;BME280;68477;42.698;23.342;2024-01-06T06:00:10;95068.22;;;4.34;92.09
79077;BME280;68477;42.698;23.342;2024-01-06T06:02:36;95080.38;;;4.53;90.31
79077;BME280;68477;42.698;23.342;2024-01-06T06:05:02;95064.50;;;4.56;89.38
79077;BME280;68477;42.698;23.342;2024-01-06T06:07:27;95064.94;;;4.13;92.21
79077;BME280;68477;42.698;23.342;2024-01-06T06:09:53;95068.78;;;4.28;90.79
79077;BME280;68477;42.698;23.342;2024-01-06T06:12:19;95066.72;;;3.64;93.70
79077;BME280;68477;42.698;23.342;2024-01-06T06:14:44;95062.16;;;3.56;95.62
79077;BME280;68477;42.698;23.342;2024-01-06T06:17:10;95061.38;;;3.85;93.71
79077;BME280;68477;42.698;23.342;2024-01-06T06:19:35;95057.69;;;4.26;89.39
79077;BME280;68477;42.698;23.342;2024-01-06T06:22:01;95059.38;;;4.74;86.51
79077;BME280;68477;42.698;23.342;2024-01-06T06:24:27;95063.06;;;4.81;86.72
79077;BME280;68477;42.698;23.342;2024-01-06T06:26:52;95060.56;;;4.32;89.66
79077;BME280;68477;42.698;23.342;2024-01-06T06:29:18;95060.81;;;4.49;89.26
79077;BME280;68477;42.698;23.342;2024-01-06T06:31:43;95066.22;;;4.75;85.29
79077;BME280;68477;42.698;23.342;2024-01-06T06:34:10;95086.22;;;4.84;86.55
79077;BME280;68477;42.698;23.342;2024-01-06T06:36:36;95070.28;;;4.30;88.61
79077;BME280;68477;42.698;23.342;2024-01-06T06:39:02;95076.69;;;4.65;86.58
79077;BME280;68477;42.698;23.342;2024-01-06T06:41:29;95079.19;;;4.94;84.12
79077;BME280;68477;42.698;23.342;2024-01-06T06:43:55;95064.94;;;4.32;88.91
79077;BME280;68477;42.698;23.342;2024-01-06T06:46:20;95065.47;;;4.35;88.58
79077;BME280;68477;42.698;23.342;2024-01-06T06:48:47;95078.53;;;4.82;85.45
79077;BME280;68477;42.698;23.342;2024-01-06T06:51:13;95068.16;;;4.73;88.22
79077;BME280;68477;42.698;23.342;2024-01-06T06:53:38;95075.06;;;4.25;90.81
79077;BME280;68477;42.698;23.342;2024-01-06T06:56:04;95077.00;;;4.23;90.61
79077;BME280;68477;42.698;23.342;2024-01-06T06:58:29;95073.13;;;4.56;89.13
79077;BME280;68477;42.698;23.342;2024-01-06T07:00:55;95070.66;;;4.55;88.48
79077;BME280;68477;42.698;23.342;2024-01-06T07:03:20;95071.31;;;4.76;88.31
79077;BME280;68477;42.698;23.342;2024-01-06T07:05:46;95061.34;;;4.52;90.20
79077;BME280;68477;42.698;23.342;2024-01-06T07:08:11;95062.78;;;4.74;88.68
79077;BME280;68477;42.698;23.342;2024-01-06T07:10:40;95076.28;;;4.50;89.23
79077;BME280;68477;42.698;23.342;2024-01-06T07:13:05;95056.09;;;4.72;89.46
79077;BME280;68477;42.698;23.342;2024-01-06T07:15:31;95067.50;;;4.98;87.54
79077;BME280;68477;42.698;23.342;2024-01-06T07:17:56;95060.09;;;5.03;87.20
79077;BME280;68477;42.698;23.342;2024-01-06T07:20:22;95068.41;;;5.16;85.40
79077;BME280;68477;42.698;23.342;2024-01-06T07:22:47;95060.88;;;5.13;86.19
79077;BME280;68477;42.698;23.342;2024-01-06T07:25:13;95054.06;;;5.30;86.36
79077;BME280;68477;42.698;23.342;2024-01-06T07:27:38;95072.25;;;5.22;86.03
79077;BME280;68477;42.698;23.342;2024-01-06T07:30:04;95061.53;;;4.88;88.17
79077;BME280;68477;42.698;23.342;2024-01-06T07:32:30;95073.00;;;5.32;86.45
79077;BME280;68477;42.698;23.342;2024-01-06T07:34:56;95049.69;;;5.31;85.31
79077;BME280;68477;42.698;23.342;2024-01-06T07:37:21;95061.84;;;5.40;84.35
79077;BME280;68477;42.698;23.342;2024-01-06T07:39:47;95053.28;;;5.75;81.14
79077;BME280;68477;42.698;23.342;2024-01-06T07:42:12;95036.25;;;5.53;83.18
79077;BME280;68477;42.698;23.342;2024-01-06T07:44:38;95081.19;;;5.65;83.86
79077;BME280;68477;42.698;23.342;2024-01-06T07:47:03;95049.50;;;5.14;88.97
79077;BME280;68477;42.698;23.342;2024-01-06T07:49:30;95051.63;;;5.29;85.95
79077;BME280;68477;42.698;23.342;2024-01-06T07:51:56;95059.00;;;5.06;87.52
79077;BME280;68477;42.698;23.342;2024-01-06T07:54:22;95049.84;;;5.57;84.69
79077;BME280;68477;42.698;23.342;2024-01-06T07:56:47;95078.31;;;5.40;86.63
79077;BME280;68477;42.698;23.342;2024-01-06T07:59:13;95061.03;;;5.67;85.13
79077;BME280;68477;42.698;23.342;2024-01-06T08:01:39;95059.09;;;5.41;86.83
79077;BME280;68477;42.698;23.342;2024-01-06T08:04:04;95049.84;;;5.57;86.79
79077;BME280;68477;42.698;23.342;2024-01-06T08:06:30;95076.75;;;5.57;86.84
79077;BME280;68477;42.698;23.342;2024-01-06T08:08:55;95049.13;;;5.37;87.56
79077;BME280;68477;42.698;23.342;2024-01-06T08:11:21;95078.38;;;5.58;88.00
79077;BME280;68477;42.698;23.342;2024-01-06T08:13:47;95048.09;;;5.65;86.98
79077;BME280;68477;42.698;23.342;2024-01-06T08:16:12;95074.91;;;5.67;86.23
79077;BME280;68477;42.698;23.342;2024-01-06T08:18:38;95073.00;;;5.32;87.12
79077;BME280;68477;42.698;23.342;2024-01-06T08:21:04;95050.19;;;5.44;87.13
79077;BME280;68477;42.698;23.342;2024-01-06T08:23:29;95078.16;;;5.42;87.52
79077;BME280;68477;42.698;23.342;2024-01-06T08:25:54;95047.03;;;5.40;85.32
79077;BME280;68477;42.698;23.342;2024-01-06T08:28:22;95042.53;;;5.60;85.72
79077;BME280;68477;42.698;23.342;2024-01-06T08:30:49;95073.22;;;5.66;83.31
79077;BME280;68477;42.698;23.342;2024-01-06T08:33:14;95047.78;;;5.33;86.11
79077;BME280;68477;42.698;23.342;2024-01-06T08:35:40;95054.03;;;5.67;85.03
79077;BME280;68477;42.698;23.342;2024-01-06T08:38:09;95060.84;;;5.96;81.68
79077;BME280;68477;42.698;23.342;2024-01-06T08:40:35;95038.94;;;6.06;82.47
79077;BME280;68477;42.698;23.342;2024-01-06T08:43:01;95058.31;;;6.22;81.75
79077;BME280;68477;42.698;23.342;2024-01-06T08:45:26;95081.72;;;6.31;79.11
79077;BME280;68477;42.698;23.342;2024-01-06T08:47:52;95049.34;;;6.42;81.99
79077;BME280;68477;42.698;23.342;2024-01-06T08:50:17;95068.09;;;6.89;78.33
79077;BME280;68477;42.698;23.342;2024-01-06T08:52:43;95054.28;;;6.71;80.05
79077;BME280;68477;42.698;23.342;2024-01-06T08:55:08;95053.94;;;7.26;76.54
79077;BME280;68477;42.698;23.342;2024-01-06T08:57:34;95041.19;;;6.97;76.26
79077;BME280;68477;42.698;23.342;2024-01-06T08:59:59;95063.03;;;6.62;78.98
79077;BME280;68477;42.698;23.342;2024-01-06T09:02:25;95046.81;;;6.32;80.50
79077;BME280;68477;42.698;23.342;2024-01-06T09:04:50;95050.78;;;6.88;77.85
79077;BME280;68477;42.698;23.342;2024-01-06T09:07:16;95036.28;;;6.42;79.21
79077;BME280;68477;42.698;23.342;2024-01-06T09:09:43;95027.63;;;6.67;77.71
79077;BME280;68477;42.698;23.342;2024-01-06T09:12:10;95036.75;;;6.89;76.52
79077;BME280;68477;42.698;23.342;2024-01-06T09:14:36;95025.06;;;6.76;76.54
79077;BME280;68477;42.698;23.342;2024-01-06T09:17:01;95021.84;;;6.82;75.32
79077;BME280;68477;42.698;23.342;2024-01-06T09:19:27;95028.97;;;7.40;73.99
79077;BME280;68477;42.698;23.342;2024-01-06T09:21:54;94988.25;;;6.95;74.89
79077;BME280;68477;42.698;23.342;2024-01-06T09:24:20;95015.00;;;6.89;75.99
79077;BME280;68477;42.698;23.342;2024-01-06T09:26:45;95024.97;;;6.16;79.11
79077;BME280;68477;42.698;23.342;2024-01-06T09:29:11;94987.19;;;6.46;77.71
79077;BME280;68477;42.698;23.342;2024-01-06T09:31:37;95017.81;;;6.61;77.14
79077;BME280;68477;42.698;23.342;2024-01-06T09:34:03;94956.78;;;6.79;77.19
79077;BME280;68477;42.698;23.342;2024-01-06T09:36:31;95011.41;;;6.82;75.62
79077;BME280;68477;42.698;23.342;2024-01-06T09:38:56;94990.84;;;6.61;76.02
79077;BME280;68477;42.698;23.342;2024-01-06T09:41:23;94979.53;;;6.86;76.23
79077;BME280;68477;42.698;23.342;2024-01-06T09:43:48;94979.41;;;7.30;74.44
79077;BME280;68477;42.698;23.342;2024-01-06T09:46:29;94976.47;;;6.91;75.64
79077;BME280;68477;42.698;23.342;2024-01-06T09:48:55;94976.53;;;7.07;75.15
79077;BME280;68477;42.698;23.342;2024-01-06T09:51:22;94982.28;;;6.77;76.20
79077;BME280;68477;42.698;23.342;2024-01-06T09:54:01;94963.69;;;6.88;76.52
79077;BME280;68477;42.698;23.342;2024-01-06T09:56:29;94976.13;;;6.86;75.69
79077;BME280;68477;42.698;23.342;2024-01-06T09:58:55;94974.25;;;7.12;76.31
79077;BME280;68477;42.698;23.342;2024-01-06T10:01:21;94947.00;;;7.15;73.98
79077;BME280;68477;42.698;23.342;2024-01-06T10:03:47;94936.38;;;7.24;74.49
79077;BME280;68477;42.698;23.342;2024-01-06T10:06:13;94950.47;;;7.32;74.69
79077;BME280;68477;42.698;23.342;2024-01-06T10:08:41;94946.78;;;7.08;76.25
79077;BME280;68477;42.698;23.342;2024-01-06T10:11:07;94925.09;;;7.16;75.55
79077;BME280;68477;42.698;23.342;2024-01-06T10:13:36;94962.81;;;7.13;74.59
79077;BME280;68477;42.698;23.342;2024-01-06T10:16:04;94914.13;;;7.20;75.51
79077;BME280;68477;42.698;23.342;2024-01-06T10:18:32;94930.63;;;7.13;75.84
79077;BME280;68477;42.698;23.342;2024-01-06T10:20:58;94934.00;;;7.55;74.17
79077;BME280;68477;42.698;23.342;2024-01-06T10:23:26;94939.19;;;7.47;74.44
79077;BME280;68477;42.698;23.342;2024-01-06T10:25:55;94907.75;;;7.23;72.32
79077;BME280;68477;42.698;23.342;2024-01-06T10:28:22;94883.13;;;7.42;72.96
79077;BME280;68477;42.698;23.342;2024-01-06T10:30:54;94925.25;;;7.14;74.17
79077;BME280;68477;42.698;23.342;2024-01-06T10:33:21;94885.91;;;7.40;74.94
79077;BME280;68477;42.698;23.342;2024-01-06T10:35:48;94897.03;;;7.58;74.58
79077;BME280;68477;42.698;23.342;2024-01-06T10:38:14;94908.78;;;7.46;73.53
79077;BME280;68477;42.698;23.342;2024-01-06T10:40:59;94876.41;;;7.55;72.09
79077;BME280;68477;42.698;23.342;2024-01-06T10:43:26;94876.41;;;7.80;70.90
79077;BME280;68477;42.698;23.342;2024-01-06T10:45:56;94905.88;;;7.66;71.97
79077;BME280;68477;42.698;23.342;2024-01-06T10:48:25;94876.09;;;7.75;71.81
79077;BME280;68477;42.698;23.342;2024-01-06T10:50:52;94874.63;;;7.80;72.69
79077;BME280;68477;42.698;23.342;2024-01-06T10:53:20;94870.69;;;7.84;71.27
79077;BME280;68477;42.698;23.342;2024-01-06T10:55:49;94870.84;;;8.07;72.22
79077;BME280;68477;42.698;23.342;2024-01-06T10:58:17;94878.38;;;7.94;71.76
79077;BME280;68477;42.698;23.342;2024-01-06T11:00:43;94874.00;;;7.70;73.17
79077;BME280;68477;42.698;23.342;2024-01-06T11:03:09;94861.84;;;7.69;73.24
79077;BME280;68477;42.698;23.342;2024-01-06T11:05:36;94847.66;;;7.72;72.74
79077;BME280;68477;42.698;23.342;2024-01-06T11:08:03;94848.78;;;7.94;72.85
79077;BME280;68477;42.698;23.342;2024-01-06T11:10:30;94843.03;;;7.90;72.10
79077;BME280;68477;42.698;23.342;2024-01-06T11:13:08;94845.34;;;7.85;71.98
79077;BME280;68477;42.698;23.342;2024-01-06T11:15:53;94826.69;;;7.80;72.19
79077;BME280;68477;42.698;23.342;2024-01-06T11:18:39;94842.78;;;8.24;71.52
79077;BME280;68477;42.698;23.342;2024-01-06T11:21:18;94842.50;;;8.11;74.33
79077;BME280;68477;42.698;23.342;2024-01-06T11:24:25;94807.97;;;8.63;68.72
79077;BME280;68477;42.698;23.342;2024-01-06T11:26:56;94846.81;;;8.98;68.98
79077;BME280;68477;42.698;23.342;2024-01-06T11:29:22;94805.00;;;8.97;69.43
79077;BME280;68477;42.698;23.342;2024-01-06T11:32:16;94811.19;;;9.50;67.02
79077;BME280;68477;42.698;23.342;2024-01-06T11:34:42;94833.25;;;9.18;68.57
79077;BME280;68477;42.698;23.342;2024-01-06T11:37:08;94777.78;;;10.11;63.75
79077;BME280;68477;42.698;23.342;2024-01-06T11:39:41;94805.53;;;10.58;61.95
79077;BME280;68477;42.698;23.342;2024-01-06T11:42:10;94806.13;;;9.48;64.27
79077;BME280;68477;42.698;23.342;2024-01-06T11:44:38;94760.19;;;9.82;64.69
79077;BME280;68477;42.698;23.342;2024-01-06T11:47:04;94785.69;;;9.58;65.36
79077;BME280;68477;42.698;23.342;2024-01-06T11:49:31;94788.00;;;9.76;66.42
79077;BME280;68477;42.698;23.342;2024-01-06T11:52:00;94753.41;;;9.87;64.55
79077;BME280;68477;42.698;23.342;2024-01-06T11:54:26;94737.63;;;10.17;63.10
79077;BME280;68477;42.698;23.342;2024-01-06T11:56:51;94765.84;;;9.56;65.60
79077;BME280;68477;42.698;23.342;2024-01-06T11:59:21;94741.94;;;10.69;62.86
79077;BME280;68477;42.698;23.342;2024-01-06T12:01:47;94744.53;;;11.48;59.24
79077;BME280;68477;42.698;23.342;2024-01-06T12:04:16;94744.88;;;11.38;60.49
79077;BME280;68477;42.698;23.342;2024-01-06T12:06:43;94732.28;;;11.33;61.20
79077;BME280;68477;42.698;23.342;2024-01-06T12:09:12;94745.75;;;11.24;60.88
79077;BME280;68477;42.698;23.342;2024-01-06T12:11:41;94718.84;;;11.07;60.79
79077;BME280;68477;42.698;23.342;2024-01-06T12:14:13;94719.69;;;10.06;64.12
79077;BME280;68477;42.698;23.342;2024-01-06T12:16:38;94701.34;;;9.91;64.75
79077;BME280;68477;42.698;23.342;2024-01-06T12:19:06;94698.81;;;9.98;64.77
79077;BME280;68477;42.698;23.342;2024-01-06T12:21:33;94704.28;;;9.58;66.52
79077;BME280;68477;42.698;23.342;2024-01-06T12:24:18;94709.22;;;9.24;67.66
79077;BME280;68477;42.698;23.342;2024-01-06T12:26:46;94717.16;;;9.68;66.95
79077;BME280;68477;42.698;23.342;2024-01-06T12:29:12;94723.56;;;9.51;67.65
79077;BME280;68477;42.698;23.342;2024-01-06T12:31:42;94742.03;;;9.43;68.58
79077;BME280;68477;42.698;23.342;2024-01-06T12:34:10;94727.34;;;9.33;68.57
79077;BME280;68477;42.698;23.342;2024-01-06T12:36:39;94738.09;;;9.39;70.63
79077;BME280;68477;42.698;23.342;2024-01-06T12:39:10;94722.03;;;9.56;69.99
79077;BME280;68477;42.698;23.342;2024-01-06T12:41:37;94718.16;;;9.52;69.67
79077;BME280;68477;42.698;23.342;2024-01-06T12:44:03;94730.94;;;9.70;68.23
79077;BME280;68477;42.698;23.342;2024-01-06T12:46:29;94717.53;;;9.80;69.17
79077;BME280;68477;42.698;23.342;2024-01-06T12:48:54;94725.47;;;10.60;65.88
79077;BME280;68477;42.698;23.342;2024-01-06T12:51:20;94715.84;;;10.67;67.78
79077;BME280;68477;42.698;23.342;2024-01-06T12:53:45;94683.84;;;11.84;62.11
79077;BME280;68477;42.698;23.342;2024-01-06T12:56:12;94678.28;;;11.44;62.30
79077;BME280;68477;42.698;23.342;2024-01-06T12:58:40;94679.25;;;11.15;62.72